DLH3DM EDDH-EVRA
Flight info
| Callsign | DLH3DM |
|---|---|
| Flight time | N/A |
| Altitude | 35000 |
| Route | LUGEG3G LUGEG P605 MEGAR DCT KOSEB DCT NINTA DCT ADAXA DCT ORVIX ORVIX2S |
| Aircraft | A320/M-V/N |
Departure
| Time | 2026-05-04 18:42 |
|---|---|
| Airport | Hamburg Helmut Schmidt Airport (EDDH) |
Arrival
| Time | N/A |
|---|---|
| Airport | Riga International Airport (EVRA) |
| Time | Latitude | Longitude | Altitude | Speed | Heading |
|---|---|---|---|---|---|
| 2026-05-04 18:21 | 53.63245 | 10.00357 | 49 ft | 0 kts | 86° |
| 2026-05-04 18:33 | 53.63244 | 10.00340 | 49 ft | 4 kts | 86° |
| 2026-05-04 18:33 | 53.63242 | 10.00294 | 49 ft | 4 kts | 86° |
| 2026-05-04 18:33 | 53.63240 | 10.00249 | 44 ft | 4 kts | 86° |
| 2026-05-04 18:33 | 53.63239 | 10.00207 | 44 ft | 1 kts | 86° |
| 2026-05-04 18:34 | 53.63240 | 10.00228 | 44 ft | 8 kts | 86° |
| 2026-05-04 18:34 | 53.63240 | 10.00239 | 44 ft | 0 kts | 88° |
| 2026-05-04 18:34 | 53.63237 | 10.00242 | 45 ft | 0 kts | 128° |
| 2026-05-04 18:34 | 53.63228 | 10.00232 | 47 ft | 3 kts | 219° |
| 2026-05-04 18:35 | 53.63213 | 10.00206 | 48 ft | 4 kts | 228° |
| 2026-05-04 18:35 | 53.63200 | 10.00190 | 49 ft | 0 kts | 200° |
| 2026-05-04 18:35 | 53.63199 | 10.00190 | 49 ft | 0 kts | 198° |
| 2026-05-04 18:36 | 53.63194 | 10.00188 | 49 ft | 1 kts | 196° |
| 2026-05-04 18:36 | 53.63188 | 10.00187 | 49 ft | 0 kts | 184° |
| 2026-05-04 18:37 | 53.63174 | 10.00187 | 49 ft | 11 kts | 178° |
| 2026-05-04 18:37 | 53.63059 | 10.00173 | 47 ft | 18 kts | 208° |
| 2026-05-04 18:37 | 53.62963 | 10.00074 | 47 ft | 8 kts | 213° |
| 2026-05-04 18:38 | 53.62924 | 10.00006 | 49 ft | 8 kts | 240° |
| 2026-05-04 18:38 | 53.62897 | 9.99918 | 48 ft | 9 kts | 243° |
| 2026-05-04 18:38 | 53.62892 | 9.99901 | 47 ft | 0 kts | 243° |
| 2026-05-04 18:40 | 53.62891 | 9.99899 | 47 ft | 1 kts | 243° |
| 2026-05-04 18:40 | 53.62860 | 9.99780 | 44 ft | 16 kts | 267° |
| 2026-05-04 18:40 | 53.62898 | 9.99718 | 45 ft | 0 kts | 333° |
| 2026-05-04 18:41 | 53.63201 | 9.99450 | 45 ft | 102 kts | 333° |
| 2026-05-04 18:41 | 53.64082 | 9.98686 | 193 ft | 167 kts | 332° |
| 2026-05-04 18:42 | 53.65128 | 9.97783 | 1209 ft | 175 kts | 333° |
| 2026-05-04 18:42 | 53.66271 | 9.96796 | 1939 ft | 195 kts | 331° |
| 2026-05-04 18:42 | 53.67540 | 9.95702 | 2600 ft | 214 kts | 330° |
| 2026-05-04 18:42 | 53.69010 | 9.94786 | 3432 ft | 235 kts | 347° |
| 2026-05-04 18:43 | 53.70736 | 9.94635 | 4346 ft | 260 kts | 357° |
| 2026-05-04 18:43 | 53.72583 | 9.95035 | 4839 ft | 276 kts | 18° |
| 2026-05-04 18:43 | 53.74111 | 9.96998 | 5246 ft | 286 kts | 54° |
| 2026-05-04 18:43 | 53.75012 | 10.00001 | 6550 ft | 288 kts | 64° |
| 2026-05-04 18:44 | 53.75873 | 10.03046 | 7819 ft | 294 kts | 64° |
| 2026-05-04 18:44 | 53.76481 | 10.05154 | 8671 ft | 298 kts | 63° |
| 2026-05-04 18:44 | 53.77721 | 10.09396 | 9640 ft | 307 kts | 63° |
| 2026-05-04 18:44 | 53.78670 | 10.12644 | 9892 ft | 309 kts | 63° |
| 2026-05-04 18:45 | 53.79616 | 10.15902 | 9962 ft | 309 kts | 63° |
| 2026-05-04 18:45 | 53.80560 | 10.19170 | 9974 ft | 309 kts | 63° |
| 2026-05-04 18:45 | 53.81496 | 10.22433 | 9989 ft | 309 kts | 64° |
| 2026-05-04 18:45 | 53.82434 | 10.25721 | 9978 ft | 310 kts | 64° |
| 2026-05-04 18:46 | 53.83371 | 10.29009 | 9980 ft | 310 kts | 64° |
| 2026-05-04 18:46 | 53.84309 | 10.32294 | 9978 ft | 310 kts | 64° |
| 2026-05-04 18:46 | 53.85256 | 10.35613 | 10416 ft | 314 kts | 64° |
| 2026-05-04 18:46 | 53.86207 | 10.38952 | 11677 ft | 316 kts | 63° |
| 2026-05-04 18:47 | 53.87168 | 10.42334 | 12856 ft | 322 kts | 63° |
| 2026-05-04 18:47 | 53.88146 | 10.45788 | 13967 ft | 328 kts | 63° |
| 2026-05-04 18:47 | 53.89141 | 10.49303 | 14960 ft | 334 kts | 63° |
| 2026-05-04 18:47 | 53.90155 | 10.52881 | 15937 ft | 340 kts | 63° |
| 2026-05-04 18:48 | 53.91186 | 10.56521 | 16913 ft | 346 kts | 63° |
| 2026-05-04 18:48 | 53.92238 | 10.60243 | 17872 ft | 352 kts | 63° |
| 2026-05-04 18:48 | 53.93302 | 10.64010 | 18760 ft | 358 kts | 63° |
| 2026-05-04 18:48 | 53.94577 | 10.67664 | 19554 ft | 362 kts | 46° |
| 2026-05-04 18:49 | 53.96392 | 10.70623 | 20356 ft | 365 kts | 39° |
| 2026-05-04 18:49 | 53.98206 | 10.73696 | 21189 ft | 371 kts | 43° |
| 2026-05-04 18:49 | 53.99967 | 10.76957 | 22000 ft | 378 kts | 45° |